sensor_id;sensor_type;location;lat;lon;timestamp;temperature;humidity
18712;DHT22;9485;49.386;8.674;2023-11-19T00:01:44;12.30;92.30
18712;DHT22;9485;49.386;8.674;2023-11-19T00:07:06;12.40;92.30
18712;DHT22;9485;49.386;8.674;2023-11-19T00:12:29;12.40;92.30
18712;DHT22;9485;49.386;8.674;2023-11-19T00:17:51;12.50;92.40
18712;DHT22;9485;49.386;8.674;2023-11-19T00:23:12;12.50;92.40
18712;DHT22;9485;49.386;8.674;2023-11-19T00:28:33;12.50;92.50
18712;DHT22;9485;49.386;8.674;2023-11-19T00:33:55;12.50;92.50
18712;DHT22;9485;49.386;8.674;2023-11-19T00:39:16;12.60;92.50
18712;DHT22;9485;49.386;8.674;2023-11-19T00:44:40;12.60;92.50
18712;DHT22;9485;49.386;8.674;2023-11-19T00:50:03;12.70;92.50
18712;DHT22;9485;49.386;8.674;2023-11-19T00:55:24;12.70;92.60
18712;DHT22;9485;49.386;8.674;2023-11-19T01:00:45;12.70;92.60
18712;DHT22;9485;49.386;8.674;2023-11-19T01:06:07;12.80;92.70
18712;DHT22;9485;49.386;8.674;2023-11-19T01:11:28;12.80;92.70
18712;DHT22;9485;49.386;8.674;2023-11-19T01:16:49;12.80;92.70
18712;DHT22;9485;49.386;8.674;2023-11-19T01:22:11;12.90;92.70
18712;DHT22;9485;49.386;8.674;2023-11-19T01:27:32;12.90;92.80
18712;DHT22;9485;49.386;8.674;2023-11-19T01:32:54;12.90;92.80
18712;DHT22;9485;49.386;8.674;2023-11-19T01:38:16;12.90;92.80
18712;DHT22;9485;49.386;8.674;2023-11-19T01:43:38;13.00;92.80
18712;DHT22;9485;49.386;8.674;2023-11-19T01:49:01;13.00;93.20
18712;DHT22;9485;49.386;8.674;2023-11-19T01:54:24;13.00;92.90
18712;DHT22;9485;49.386;8.674;2023-11-19T01:59:44;13.10;92.90
18712;DHT22;9485;49.386;8.674;2023-11-19T02:05:05;13.10;92.90
18712;DHT22;9485;49.386;8.674;2023-11-19T02:10:27;13.20;92.90
18712;DHT22;9485;49.386;8.674;2023-11-19T02:15:48;13.20;92.90
18712;DHT22;9485;49.386;8.674;2023-11-19T02:21:09;13.20;92.90
18712;DHT22;9485;49.386;8.674;2023-11-19T02:26:38;13.20;92.90
18712;DHT22;9485;49.386;8.674;2023-11-19T02:32:05;13.20;93.00
18712;DHT22;9485;49.386;8.674;2023-11-19T02:37:29;13.30;92.90
18712;DHT22;9485;49.386;8.674;2023-11-19T02:42:49;13.30;93.00
18712;DHT22;9485;49.386;8.674;2023-11-19T02:48:12;13.30;93.40
18712;DHT22;9485;49.386;8.674;2023-11-19T02:53:33;13.30;93.10
18712;DHT22;9485;49.386;8.674;2023-11-19T02:58:54;13.40;93.10
18712;DHT22;9485;49.386;8.674;2023-11-19T03:04:16;13.40;93.10
18712;DHT22;9485;49.386;8.674;2023-11-19T03:09:40;13.40;93.20
18712;DHT22;9485;49.386;8.674;2023-11-19T03:15:00;13.50;93.20
18712;DHT22;9485;49.386;8.674;2023-11-19T03:20:22;13.50;93.20
18712;DHT22;9485;49.386;8.674;2023-11-19T03:25:46;13.60;93.20
18712;DHT22;9485;49.386;8.674;2023-11-19T03:31:07;13.60;93.20
18712;DHT22;9485;49.386;8.674;2023-11-19T03:36:33;13.60;93.20
18712;DHT22;9485;49.386;8.674;2023-11-19T03:41:53;13.70;93.30
18712;DHT22;9485;49.386;8.674;2023-11-19T03:47:14;13.70;93.30
18712;DHT22;9485;49.386;8.674;2023-11-19T03:52:36;13.80;93.30
18712;DHT22;9485;49.386;8.674;2023-11-19T03:57:57;13.90;93.00
18712;DHT22;9485;49.386;8.674;2023-11-19T04:03:18;13.80;93.30
18712;DHT22;9485;49.386;8.674;2023-11-19T04:08:40;13.90;93.40
18712;DHT22;9485;49.386;8.674;2023-11-19T04:14:01;14.00;93.40
18712;DHT22;9485;49.386;8.674;2023-11-19T04:19:22;14.00;93.40
18712;DHT22;9485;49.386;8.674;2023-11-19T04:24:45;14.10;93.40
18712;DHT22;9485;49.386;8.674;2023-11-19T04:30:07;14.10;93.40
18712;DHT22;9485;49.386;8.674;2023-11-19T04:35:30;14.20;93.40
18712;DHT22;9485;49.386;8.674;2023-11-19T04:40:52;14.20;93.40
18712;DHT22;9485;49.386;8.674;2023-11-19T04:46:13;14.30;93.50
18712;DHT22;9485;49.386;8.674;2023-11-19T04:51:38;14.30;93.40
18712;DHT22;9485;49.386;8.674;2023-11-19T04:57:01;14.40;93.40
18712;DHT22;9485;49.386;8.674;2023-11-19T05:02:21;14.40;93.40
18712;DHT22;9485;49.386;8.674;2023-11-19T05:07:42;14.40;93.40
18712;DHT22;9485;49.386;8.674;2023-11-19T05:13:04;14.50;93.40
18712;DHT22;9485;49.386;8.674;2023-11-19T05:18:25;14.50;93.40
18712;DHT22;9485;49.386;8.674;2023-11-19T05:23:45;14.60;93.40
18712;DHT22;9485;49.386;8.674;2023-11-19T05:29:07;14.60;93.40
18712;DHT22;9485;49.386;8.674;2023-11-19T05:34:28;14.60;93.40
18712;DHT22;9485;49.386;8.674;2023-11-19T05:39:48;14.70;93.40
18712;DHT22;9485;49.386;8.674;2023-11-19T05:45:13;14.70;93.40
18712;DHT22;9485;49.386;8.674;2023-11-19T05:50:34;14.80;93.40
18712;DHT22;9485;49.386;8.674;2023-11-19T05:55:54;14.80;93.40
18712;DHT22;9485;49.386;8.674;2023-11-19T06:01:17;14.80;93.30
18712;DHT22;9485;49.386;8.674;2023-11-19T06:06:38;14.90;93.40
18712;DHT22;9485;49.386;8.674;2023-11-19T06:12:00;14.90;93.40
18712;DHT22;9485;49.386;8.674;2023-11-19T06:17:22;14.90;93.30
18712;DHT22;9485;49.386;8.674;2023-11-19T06:22:43;15.00;93.40
18712;DHT22;9485;49.386;8.674;2023-11-19T06:28:04;15.00;93.40
18712;DHT22;9485;49.386;8.674;2023-11-19T06:33:26;15.10;93.40
18712;DHT22;9485;49.386;8.674;2023-11-19T06:38:47;15.10;93.40
18712;DHT22;9485;49.386;8.674;2023-11-19T06:44:08;15.10;93.40
18712;DHT22;9485;49.386;8.674;2023-11-19T06:49:30;15.20;93.50
18712;DHT22;9485;49.386;8.674;2023-11-19T06:54:50;15.10;93.50
18712;DHT22;9485;49.386;8.674;2023-11-19T07:00:12;15.30;93.50
18712;DHT22;9485;49.386;8.674;2023-11-19T07:05:35;15.30;93.50
18712;DHT22;9485;49.386;8.674;2023-11-19T07:10:57;15.30;93.50
18712;DHT22;9485;49.386;8.674;2023-11-19T07:16:18;15.40;93.50
18712;DHT22;9485;49.386;8.674;2023-11-19T07:21:42;15.40;93.50
18712;DHT22;9485;49.386;8.674;2023-11-19T07:27:04;15.40;93.40
18712;DHT22;9485;49.386;8.674;2023-11-19T07:32:25;15.50;93.40
18712;DHT22;9485;49.386;8.674;2023-11-19T07:37:47;15.50;93.50
18712;DHT22;9485;49.386;8.674;2023-11-19T07:43:09;15.50;93.50
18712;DHT22;9485;49.386;8.674;2023-11-19T07:48:29;15.50;93.40
18712;DHT22;9485;49.386;8.674;2023-11-19T07:53:52;15.70;93.40
18712;DHT22;9485;49.386;8.674;2023-11-19T07:59:12;15.70;93.30
18712;DHT22;9485;49.386;8.674;2023-11-19T08:04:33;15.70;93.20
18712;DHT22;9485;49.386;8.674;2023-11-19T08:09:55;15.70;93.30
18712;DHT22;9485;49.386;8.674;2023-11-19T08:15:16;15.70;93.30
18712;DHT22;9485;49.386;8.674;2023-11-19T08:20:36;15.70;93.30
18712;DHT22;9485;49.386;8.674;2023-11-19T08:26:00;15.60;93.30
18712;DHT22;9485;49.386;8.674;2023-11-19T08:31:21;15.60;93.30
18712;DHT22;9485;49.386;8.674;2023-11-19T08:36:42;15.60;93.40
18712;DHT22;9485;49.386;8.674;2023-11-19T08:42:04;15.70;93.30
18712;DHT22;9485;49.386;8.674;2023-11-19T08:47:25;15.70;93.70
18712;DHT22;9485;49.386;8.674;2023-11-19T08:52:46;15.80;94.10
18712;DHT22;9485;49.386;8.674;2023-11-19T08:58:08;15.90;94.60
18712;DHT22;9485;49.386;8.674;2023-11-19T09:03:31;16.20;95.30
18712;DHT22;9485;49.386;8.674;2023-11-19T09:08:52;16.70;95.40
18712;DHT22;9485;49.386;8.674;2023-11-19T09:14:19;17.00;94.70
18712;DHT22;9485;49.386;8.674;2023-11-19T09:19:43;17.20;93.80
18712;DHT22;9485;49.386;8.674;2023-11-19T09:25:05;17.30;93.10
18712;DHT22;9485;49.386;8.674;2023-11-19T09:30:27;17.20;92.80
18712;DHT22;9485;49.386;8.674;2023-11-19T09:35:48;17.10;93.00
18712;DHT22;9485;49.386;8.674;2023-11-19T09:41:10;17.10;93.30
18712;DHT22;9485;49.386;8.674;2023-11-19T09:46:34;17.10;93.70
18712;DHT22;9485;49.386;8.674;2023-11-19T09:51:56;17.40;94.80
18712;DHT22;9485;49.386;8.674;2023-11-19T09:57:17;17.70;94.10
18712;DHT22;9485;49.386;8.674;2023-11-19T10:02:40;17.80;93.10
18712;DHT22;9485;49.386;8.674;2023-11-19T10:08:03;17.80;92.50
18712;DHT22;9485;49.386;8.674;2023-11-19T10:13:26;17.70;92.50
18712;DHT22;9485;49.386;8.674;2023-11-19T10:18:49;17.60;92.70
18712;DHT22;9485;49.386;8.674;2023-11-19T10:24:10;17.70;93.60
18712;DHT22;9485;49.386;8.674;2023-11-19T10:29:31;17.90;94.30
18712;DHT22;9485;49.386;8.674;2023-11-19T10:35:05;18.10;94.10
18712;DHT22;9485;49.386;8.674;2023-11-19T10:40:38;18.40;93.80
18712;DHT22;9485;49.386;8.674;2023-11-19T10:46:09;18.60;93.70
18712;DHT22;9485;49.386;8.674;2023-11-19T10:51:32;18.90;93.70
18712;DHT22;9485;49.386;8.674;2023-11-19T10:56:55;19.10;93.70
18712;DHT22;9485;49.386;8.674;2023-11-19T11:02:22;19.30;93.20
18712;DHT22;9485;49.386;8.674;2023-11-19T11:07:49;19.30;92.70
18712;DHT22;9485;49.386;8.674;2023-11-19T11:13:13;19.40;92.30
18712;DHT22;9485;49.386;8.674;2023-11-19T11:18:34;19.40;92.10
18712;DHT22;9485;49.386;8.674;2023-11-19T11:24:29;19.30;91.80
18712;DHT22;9485;49.386;8.674;2023-11-19T11:30:10;19.20;90.90
18712;DHT22;9485;49.386;8.674;2023-11-19T11:35:48;19.00;91.20
18712;DHT22;9485;49.386;8.674;2023-11-19T11:41:19;18.90;91.30
18712;DHT22;9485;49.386;8.674;2023-11-19T11:46:54;18.80;91.60
18712;DHT22;9485;49.386;8.674;2023-11-19T11:52:15;18.80;91.90
18712;DHT22;9485;49.386;8.674;2023-11-19T11:57:38;19.10;92.60
18712;DHT22;9485;49.386;8.674;2023-11-19T12:03:01;19.50;92.30
18712;DHT22;9485;49.386;8.674;2023-11-19T12:08:28;19.70;91.80
18712;DHT22;9485;49.386;8.674;2023-11-19T12:13:55;19.80;90.90
18712;DHT22;9485;49.386;8.674;2023-11-19T12:19:18;19.70;91.10
18712;DHT22;9485;49.386;8.674;2023-11-19T12:24:40;19.70;91.60
18712;DHT22;9485;49.386;8.674;2023-11-19T12:30:03;19.70;92.00
18712;DHT22;9485;49.386;8.674;2023-11-19T12:35:25;19.90;92.20
18712;DHT22;9485;49.386;8.674;2023-11-19T12:40:46;20.10;92.50
18712;DHT22;9485;49.386;8.674;2023-11-19T12:46:18;20.30;92.50
18712;DHT22;9485;49.386;8.674;2023-11-19T12:51:40;20.60;91.30
18712;DHT22;9485;49.386;8.674;2023-11-19T12:57:01;20.70;91.60
18712;DHT22;9485;49.386;8.674;2023-11-19T13:02:44;20.80;91.20
18712;DHT22;9485;49.386;8.674;2023-11-19T13:08:07;20.70;89.60
18712;DHT22;9485;49.386;8.674;2023-11-19T13:13:31;20.70;90.40
18712;DHT22;9485;49.386;8.674;2023-11-19T13:18:53;20.60;90.10
18712;DHT22;9485;49.386;8.674;2023-11-19T13:24:14;20.40;89.50
18712;DHT22;9485;49.386;8.674;2023-11-19T13:29:35;20.30;89.60
18712;DHT22;9485;49.386;8.674;2023-11-19T13:34:57;20.10;89.00
18712;DHT22;9485;49.386;8.674;2023-11-19T13:40:18;19.80;88.20
18712;DHT22;9485;49.386;8.674;2023-11-19T13:45:38;19.60;88.70
18712;DHT22;9485;49.386;8.674;2023-11-19T13:51:01;19.30;88.70
18712;DHT22;9485;49.386;8.674;2023-11-19T13:56:21;19.20;88.90
18712;DHT22;9485;49.386;8.674;2023-11-19T14:01:42;19.00;89.50
18712;DHT22;9485;49.386;8.674;2023-11-19T14:07:04;18.90;89.90
18712;DHT22;9485;49.386;8.674;2023-11-19T14:12:24;18.80;89.80
18712;DHT22;9485;49.386;8.674;2023-11-19T14:17:45;18.80;90.10
18712;DHT22;9485;49.386;8.674;2023-11-19T14:23:07;18.70;90.20
18712;DHT22;9485;49.386;8.674;2023-11-19T14:28:28;18.60;90.20
18712;DHT22;9485;49.386;8.674;2023-11-19T14:33:50;18.60;90.50
18712;DHT22;9485;49.386;8.674;2023-11-19T14:39:12;18.70;90.70
18712;DHT22;9485;49.386;8.674;2023-11-19T14:44:32;18.70;90.60
18712;DHT22;9485;49.386;8.674;2023-11-19T14:49:53;18.80;90.60
18712;DHT22;9485;49.386;8.674;2023-11-19T14:55:16;18.80;90.60
18712;DHT22;9485;49.386;8.674;2023-11-19T15:00:36;18.80;90.30
18712;DHT22;9485;49.386;8.674;2023-11-19T15:05:57;18.80;90.40
18712;DHT22;9485;49.386;8.674;2023-11-19T15:11:19;18.70;90.20
18712;DHT22;9485;49.386;8.674;2023-11-19T15:16:40;18.70;90.00
18712;DHT22;9485;49.386;8.674;2023-11-19T15:22:01;18.60;90.30
18712;DHT22;9485;49.386;8.674;2023-11-19T15:27:26;18.50;89.50
18712;DHT22;9485;49.386;8.674;2023-11-19T15:32:47;18.40;89.20
18712;DHT22;9485;49.386;8.674;2023-11-19T15:38:08;18.20;89.10
18712;DHT22;9485;49.386;8.674;2023-11-19T15:43:29;18.20;89.40
18712;DHT22;9485;49.386;8.674;2023-11-19T15:48:51;18.00;89.20
18712;DHT22;9485;49.386;8.674;2023-11-19T15:54:11;17.90;89.60
18712;DHT22;9485;49.386;8.674;2023-11-19T15:59:34;17.80;89.50
18712;DHT22;9485;49.386;8.674;2023-11-19T16:04:54;17.70;89.00
18712;DHT22;9485;49.386;8.674;2023-11-19T16:10:15;17.60;89.10
18712;DHT22;9485;49.386;8.674;2023-11-19T16:15:40;17.50;89.20
18712;DHT22;9485;49.386;8.674;2023-11-19T16:21:00;17.40;90.00
18712;DHT22;9485;49.386;8.674;2023-11-19T16:26:21;17.30;89.80
18712;DHT22;9485;49.386;8.674;2023-11-19T16:31:43;17.30;90.00
18712;DHT22;9485;49.386;8.674;2023-11-19T16:37:03;17.20;90.00
18712;DHT22;9485;49.386;8.674;2023-11-19T16:42:25;17.20;90.00
18712;DHT22;9485;49.386;8.674;2023-11-19T16:47:47;17.10;90.00
18712;DHT22;9485;49.386;8.674;2023-11-19T16:53:08;17.10;90.00
18712;DHT22;9485;49.386;8.674;2023-11-19T16:58:29;17.00;90.10
18712;DHT22;9485;49.386;8.674;2023-11-19T17:03:53;16.90;90.10
18712;DHT22;9485;49.386;8.674;2023-11-19T17:09:14;16.90;90.10
18712;DHT22;9485;49.386;8.674;2023-11-19T17:14:35;16.80;90.20
18712;DHT22;9485;49.386;8.674;2023-11-19T17:19:57;16.70;90.20
18712;DHT22;9485;49.386;8.674;2023-11-19T17:25:18;16.70;90.20
18712;DHT22;9485;49.386;8.674;2023-11-19T17:30:39;16.60;90.30
18712;DHT22;9485;49.386;8.674;2023-11-19T17:36:02;16.50;90.30
18712;DHT22;9485;49.386;8.674;2023-11-19T17:41:25;16.40;90.20
18712;DHT22;9485;49.386;8.674;2023-11-19T17:46:47;16.30;90.40
18712;DHT22;9485;49.386;8.674;2023-11-19T17:52:09;16.20;90.50
18712;DHT22;9485;49.386;8.674;2023-11-19T17:57:30;16.10;90.60
18712;DHT22;9485;49.386;8.674;2023-11-19T18:02:50;16.10;90.70
18712;DHT22;9485;49.386;8.674;2023-11-19T18:08:12;16.00;90.80
18712;DHT22;9485;49.386;8.674;2023-11-19T18:13:33;16.00;90.90
18712;DHT22;9485;49.386;8.674;2023-11-19T18:18:54;15.90;91.00
18712;DHT22;9485;49.386;8.674;2023-11-19T18:24:16;16.00;91.10
18712;DHT22;9485;49.386;8.674;2023-11-19T18:29:36;15.90;90.90
18712;DHT22;9485;49.386;8.674;2023-11-19T18:34:57;16.00;90.80
18712;DHT22;9485;49.386;8.674;2023-11-19T18:40:19;15.90;90.60
18712;DHT22;9485;49.386;8.674;2023-11-19T18:45:40;15.80;90.40
18712;DHT22;9485;49.386;8.674;2023-11-19T18:51:00;15.80;90.60
18712;DHT22;9485;49.386;8.674;2023-11-19T18:56:23;15.70;90.60
18712;DHT22;9485;49.386;8.674;2023-11-19T19:01:44;15.70;90.60
18712;DHT22;9485;49.386;8.674;2023-11-19T19:07:04;15.70;90.70
18712;DHT22;9485;49.386;8.674;2023-11-19T19:12:28;15.70;90.70
18712;DHT22;9485;49.386;8.674;2023-11-19T19:17:49;15.70;90.70
18712;DHT22;9485;49.386;8.674;2023-11-19T19:23:10;15.70;90.80
18712;DHT22;9485;49.386;8.674;2023-11-19T19:28:31;15.80;90.90
18712;DHT22;9485;49.386;8.674;2023-11-19T19:33:56;15.80;90.70
18712;DHT22;9485;49.386;8.674;2023-11-19T19:39:17;15.90;90.80
18712;DHT22;9485;49.386;8.674;2023-11-19T19:44:39;15.90;90.90
18712;DHT22;9485;49.386;8.674;2023-11-19T19:50:00;16.00;90.80
18712;DHT22;9485;49.386;8.674;2023-11-19T19:55:21;16.00;90.80
18712;DHT22;9485;49.386;8.674;2023-11-19T20:00:43;16.00;90.70
18712;DHT22;9485;49.386;8.674;2023-11-19T20:06:04;16.10;90.60
18712;DHT22;9485;49.386;8.674;2023-11-19T20:11:30;16.10;90.70
18712;DHT22;9485;49.386;8.674;2023-11-19T20:16:54;16.10;90.70
18712;DHT22;9485;49.386;8.674;2023-11-19T20:22:14;16.20;90.60
18712;DHT22;9485;49.386;8.674;2023-11-19T20:27:35;16.20;90.70
18712;DHT22;9485;49.386;8.674;2023-11-19T20:32:57;16.20;90.70
18712;DHT22;9485;49.386;8.674;2023-11-19T20:38:18;16.30;90.60
18712;DHT22;9485;49.386;8.674;2023-11-19T20:43:39;16.30;90.70
18712;DHT22;9485;49.386;8.674;2023-11-19T20:49:01;16.30;90.60
18712;DHT22;9485;49.386;8.674;2023-11-19T20:54:22;16.40;90.50
18712;DHT22;9485;49.386;8.674;2023-11-19T20:59:43;16.30;90.50
18712;DHT22;9485;49.386;8.674;2023-11-19T21:05:06;16.40;90.60
18712;DHT22;9485;49.386;8.674;2023-11-19T21:10:28;16.40;90.40
18712;DHT22;9485;49.386;8.674;2023-11-19T21:15:49;16.50;90.50
18712;DHT22;9485;49.386;8.674;2023-11-19T21:21:11;16.50;90.50
18712;DHT22;9485;49.386;8.674;2023-11-19T21:26:32;16.50;90.30
18712;DHT22;9485;49.386;8.674;2023-11-19T21:31:52;16.50;90.40
18712;DHT22;9485;49.386;8.674;2023-11-19T21:37:14;16.50;90.40
18712;DHT22;9485;49.386;8.674;2023-11-19T21:42:34;16.50;90.20
18712;DHT22;9485;49.386;8.674;2023-11-19T21:47:55;16.50;90.40
18712;DHT22;9485;49.386;8.674;2023-11-19T21:53:18;16.50;90.30
18712;DHT22;9485;49.386;8.674;2023-11-19T21:58:38;16.60;90.20
18712;DHT22;9485;49.386;8.674;2023-11-19T22:03:59;16.60;90.30
18712;DHT22;9485;49.386;8.674;2023-11-19T22:09:21;16.60;90.30
18712;DHT22;9485;49.386;8.674;2023-11-19T22:14:42;16.60;90.10
18712;DHT22;9485;49.386;8.674;2023-11-19T22:20:06;16.60;90.10
18712;DHT22;9485;49.386;8.674;2023-11-19T22:25:29;16.60;90.00
18712;DHT22;9485;49.386;8.674;2023-11-19T22:30:49;16.50;89.90
18712;DHT22;9485;49.386;8.674;2023-11-19T22:36:12;16.60;90.10
18712;DHT22;9485;49.386;8.674;2023-11-19T22:41:33;16.60;90.00
18712;DHT22;9485;49.386;8.674;2023-11-19T22:46:55;16.60;89.70
18712;DHT22;9485;49.386;8.674;2023-11-19T22:52:15;16.50;89.80
18712;DHT22;9485;49.386;8.674;2023-11-19T22:57:37;16.50;89.80
18712;DHT22;9485;49.386;8.674;2023-11-19T23:02:58;16.50;89.40
18712;DHT22;9485;49.386;8.674;2023-11-19T23:08:22;16.40;89.70
18712;DHT22;9485;49.386;8.674;2023-11-19T23:13:44;16.40;89.70
18712;DHT22;9485;49.386;8.674;2023-11-19T23:19:05;16.40;89.50
18712;DHT22;9485;49.386;8.674;2023-11-19T23:24:27;16.30;89.60
18712;DHT22;9485;49.386;8.674;2023-11-19T23:29:49;16.30;89.70
18712;DHT22;9485;49.386;8.674;2023-11-19T23:35:09;16.30;89.60
18712;DHT22;9485;49.386;8.674;2023-11-19T23:40:30;16.30;89.80
18712;DHT22;9485;49.386;8.674;2023-11-19T23:45:52;16.30;90.00
18712;DHT22;9485;49.386;8.674;2023-11-19T23:51:13;16.20;89.70
18712;DHT22;9485;49.386;8.674;2023-11-19T23:56:34;16.20;88.70
